sensor_id;sensor_type;location;lat;lon;timestamp;temperature;humidity
16315;DHT22;8266;52.150;4.768;2022-08-19T00:01:57;23.50;99.90
16315;DHT22;8266;52.150;4.768;2022-08-19T00:04:27;23.50;99.90
16315;DHT22;8266;52.150;4.768;2022-08-19T00:06:55;23.40;99.90
16315;DHT22;8266;52.150;4.768;2022-08-19T00:09:23;23.30;99.90
16315;DHT22;8266;52.150;4.768;2022-08-19T00:11:51;23.40;99.90
16315;DHT22;8266;52.150;4.768;2022-08-19T00:14:20;23.40;99.90
16315;DHT22;8266;52.150;4.768;2022-08-19T00:16:47;23.30;99.90
16315;DHT22;8266;52.150;4.768;2022-08-19T00:19:15;23.30;99.90
16315;DHT22;8266;52.150;4.768;2022-08-19T00:21:42;23.20;99.90
16315;DHT22;8266;52.150;4.768;2022-08-19T00:24:12;23.20;99.90
16315;DHT22;8266;52.150;4.768;2022-08-19T00:26:40;23.10;99.90
16315;DHT22;8266;52.150;4.768;2022-08-19T00:29:09;23.10;99.90
16315;DHT22;8266;52.150;4.768;2022-08-19T00:31:38;23.10;99.90
16315;DHT22;8266;52.150;4.768;2022-08-19T00:34:06;23.00;99.90
16315;DHT22;8266;52.150;4.768;2022-08-19T00:36:33;23.00;99.90
16315;DHT22;8266;52.150;4.768;2022-08-19T00:39:00;23.00;99.90
16315;DHT22;8266;52.150;4.768;2022-08-19T00:41:27;23.00;99.90
16315;DHT22;8266;52.150;4.768;2022-08-19T00:44:03;22.90;99.90
16315;DHT22;8266;52.150;4.768;2022-08-19T00:46:32;22.90;99.90
16315;DHT22;8266;52.150;4.768;2022-08-19T00:49:11;22.90;99.90
16315;DHT22;8266;52.150;4.768;2022-08-19T00:51:41;22.90;99.90
16315;DHT22;8266;52.150;4.768;2022-08-19T00:54:09;22.90;99.90
16315;DHT22;8266;52.150;4.768;2022-08-19T00:56:37;22.90;99.90
16315;DHT22;8266;52.150;4.768;2022-08-19T00:59:05;22.90;99.90
16315;DHT22;8266;52.150;4.768;2022-08-19T01:01:34;22.90;99.90
16315;DHT22;8266;52.150;4.768;2022-08-19T01:04:03;22.90;99.90
16315;DHT22;8266;52.150;4.768;2022-08-19T01:06:30;22.90;99.90
16315;DHT22;8266;52.150;4.768;2022-08-19T01:08:58;22.90;99.90
16315;DHT22;8266;52.150;4.768;2022-08-19T01:11:27;22.90;99.90
16315;DHT22;8266;52.150;4.768;2022-08-19T01:13:54;22.90;99.90
16315;DHT22;8266;52.150;4.768;2022-08-19T01:16:23;22.90;99.90
16315;DHT22;8266;52.150;4.768;2022-08-19T01:18:51;22.90;99.90
16315;DHT22;8266;52.150;4.768;2022-08-19T01:21:25;22.80;99.90
16315;DHT22;8266;52.150;4.768;2022-08-19T01:23:55;22.80;99.90
16315;DHT22;8266;52.150;4.768;2022-08-19T01:26:24;22.80;99.90
16315;DHT22;8266;52.150;4.768;2022-08-19T01:28:54;22.80;99.90
16315;DHT22;8266;52.150;4.768;2022-08-19T01:31:23;22.70;99.90
16315;DHT22;8266;52.150;4.768;2022-08-19T01:33:52;22.70;99.90
16315;DHT22;8266;52.150;4.768;2022-08-19T01:36:24;22.70;99.90
16315;DHT22;8266;52.150;4.768;2022-08-19T01:38:54;22.70;99.90
16315;DHT22;8266;52.150;4.768;2022-08-19T01:41:22;22.70;99.90
16315;DHT22;8266;52.150;4.768;2022-08-19T01:43:50;22.70;99.90
16315;DHT22;8266;52.150;4.768;2022-08-19T01:46:17;22.70;99.90
16315;DHT22;8266;52.150;4.768;2022-08-19T01:48:45;22.60;99.90
16315;DHT22;8266;52.150;4.768;2022-08-19T01:51:13;22.60;99.90
16315;DHT22;8266;52.150;4.768;2022-08-19T01:53:41;22.60;99.90
16315;DHT22;8266;52.150;4.768;2022-08-19T01:56:09;22.50;99.90
16315;DHT22;8266;52.150;4.768;2022-08-19T01:58:39;22.50;99.90
16315;DHT22;8266;52.150;4.768;2022-08-19T02:01:07;22.50;99.90
16315;DHT22;8266;52.150;4.768;2022-08-19T02:03:34;22.40;99.90
16315;DHT22;8266;52.150;4.768;2022-08-19T02:06:02;22.40;99.90
16315;DHT22;8266;52.150;4.768;2022-08-19T02:08:33;22.30;99.90
16315;DHT22;8266;52.150;4.768;2022-08-19T02:11:01;22.30;99.90
16315;DHT22;8266;52.150;4.768;2022-08-19T02:13:29;22.30;99.90
16315;DHT22;8266;52.150;4.768;2022-08-19T02:15:56;22.20;99.90
16315;DHT22;8266;52.150;4.768;2022-08-19T02:18:24;22.10;99.90
16315;DHT22;8266;52.150;4.768;2022-08-19T02:20:52;22.20;99.90
16315;DHT22;8266;52.150;4.768;2022-08-19T02:23:19;22.10;99.90
16315;DHT22;8266;52.150;4.768;2022-08-19T02:25:47;22.10;99.90
16315;DHT22;8266;52.150;4.768;2022-08-19T02:28:14;22.10;99.90
16315;DHT22;8266;52.150;4.768;2022-08-19T02:30:42;22.00;99.90
16315;DHT22;8266;52.150;4.768;2022-08-19T02:33:09;22.00;99.90
16315;DHT22;8266;52.150;4.768;2022-08-19T02:35:36;22.00;99.90
16315;DHT22;8266;52.150;4.768;2022-08-19T02:38:03;22.00;99.90
16315;DHT22;8266;52.150;4.768;2022-08-19T02:40:49;21.90;99.90
16315;DHT22;8266;52.150;4.768;2022-08-19T02:43:17;22.00;99.90
16315;DHT22;8266;52.150;4.768;2022-08-19T02:45:48;21.90;99.90
16315;DHT22;8266;52.150;4.768;2022-08-19T02:48:16;21.90;99.90
16315;DHT22;8266;52.150;4.768;2022-08-19T02:50:44;21.90;99.90
16315;DHT22;8266;52.150;4.768;2022-08-19T02:53:11;21.90;99.90
16315;DHT22;8266;52.150;4.768;2022-08-19T02:55:43;21.80;99.90
16315;DHT22;8266;52.150;4.768;2022-08-19T02:58:10;21.80;99.90
16315;DHT22;8266;52.150;4.768;2022-08-19T03:00:42;21.80;99.90
16315;DHT22;8266;52.150;4.768;2022-08-19T03:03:11;21.80;99.90
16315;DHT22;8266;52.150;4.768;2022-08-19T03:05:38;21.80;99.90
16315;DHT22;8266;52.150;4.768;2022-08-19T03:08:05;21.70;99.90
16315;DHT22;8266;52.150;4.768;2022-08-19T03:10:40;21.70;99.90
16315;DHT22;8266;52.150;4.768;2022-08-19T03:13:07;21.60;99.90
16315;DHT22;8266;52.150;4.768;2022-08-19T03:15:34;21.60;99.90
16315;DHT22;8266;52.150;4.768;2022-08-19T03:18:01;21.60;99.90
16315;DHT22;8266;52.150;4.768;2022-08-19T03:20:29;21.60;99.90
16315;DHT22;8266;52.150;4.768;2022-08-19T03:22:56;21.50;99.90
16315;DHT22;8266;52.150;4.768;2022-08-19T03:25:23;21.50;99.90
16315;DHT22;8266;52.150;4.768;2022-08-19T03:27:50;21.50;99.90
16315;DHT22;8266;52.150;4.768;2022-08-19T03:30:17;21.50;99.90
16315;DHT22;8266;52.150;4.768;2022-08-19T03:32:44;21.50;99.90
16315;DHT22;8266;52.150;4.768;2022-08-19T03:35:11;21.50;99.90
16315;DHT22;8266;52.150;4.768;2022-08-19T03:37:40;21.50;99.90
16315;DHT22;8266;52.150;4.768;2022-08-19T03:40:08;21.60;99.90
16315;DHT22;8266;52.150;4.768;2022-08-19T03:42:34;21.60;99.90
16315;DHT22;8266;52.150;4.768;2022-08-19T03:45:01;21.60;99.90
16315;DHT22;8266;52.150;4.768;2022-08-19T03:47:28;21.60;99.90
16315;DHT22;8266;52.150;4.768;2022-08-19T03:49:55;21.60;99.90
16315;DHT22;8266;52.150;4.768;2022-08-19T03:52:23;21.60;99.90
16315;DHT22;8266;52.150;4.768;2022-08-19T03:54:51;21.60;99.90
16315;DHT22;8266;52.150;4.768;2022-08-19T03:57:18;21.60;99.90
16315;DHT22;8266;52.150;4.768;2022-08-19T03:59:45;21.60;99.90
16315;DHT22;8266;52.150;4.768;2022-08-19T04:02:12;21.70;99.90
16315;DHT22;8266;52.150;4.768;2022-08-19T04:04:42;21.70;99.90
16315;DHT22;8266;52.150;4.768;2022-08-19T04:07:10;21.70;99.90
16315;DHT22;8266;52.150;4.768;2022-08-19T04:09:38;21.70;99.90
16315;DHT22;8266;52.150;4.768;2022-08-19T04:12:07;21.70;99.90
16315;DHT22;8266;52.150;4.768;2022-08-19T04:14:34;21.70;99.90
16315;DHT22;8266;52.150;4.768;2022-08-19T04:17:03;21.70;99.90
16315;DHT22;8266;52.150;4.768;2022-08-19T04:19:32;21.60;99.90
16315;DHT22;8266;52.150;4.768;2022-08-19T04:21:59;21.60;99.90
16315;DHT22;8266;52.150;4.768;2022-08-19T04:24:27;21.60;99.90
16315;DHT22;8266;52.150;4.768;2022-08-19T04:26:54;21.60;99.90
16315;DHT22;8266;52.150;4.768;2022-08-19T04:29:24;21.60;99.90
16315;DHT22;8266;52.150;4.768;2022-08-19T04:31:53;21.60;99.90
16315;DHT22;8266;52.150;4.768;2022-08-19T04:34:22;21.60;99.90
16315;DHT22;8266;52.150;4.768;2022-08-19T04:36:50;21.60;99.90
16315;DHT22;8266;52.150;4.768;2022-08-19T04:39:20;21.60;99.90
16315;DHT22;8266;52.150;4.768;2022-08-19T04:41:47;21.60;99.90
16315;DHT22;8266;52.150;4.768;2022-08-19T04:44:35;21.60;99.90
16315;DHT22;8266;52.150;4.768;2022-08-19T04:47:03;21.60;99.90
16315;DHT22;8266;52.150;4.768;2022-08-19T04:49:31;21.60;99.90
16315;DHT22;8266;52.150;4.768;2022-08-19T04:51:58;21.60;99.90
16315;DHT22;8266;52.150;4.768;2022-08-19T04:54:25;21.60;99.90
16315;DHT22;8266;52.150;4.768;2022-08-19T04:56:52;21.60;99.90
16315;DHT22;8266;52.150;4.768;2022-08-19T04:59:20;21.60;99.90
16315;DHT22;8266;52.150;4.768;2022-08-19T05:01:49;21.60;99.90
16315;DHT22;8266;52.150;4.768;2022-08-19T05:04:18;21.60;99.90
16315;DHT22;8266;52.150;4.768;2022-08-19T05:06:46;21.60;99.90
16315;DHT22;8266;52.150;4.768;2022-08-19T05:09:14;21.60;99.90
16315;DHT22;8266;52.150;4.768;2022-08-19T05:11:42;21.60;99.90
16315;DHT22;8266;52.150;4.768;2022-08-19T05:14:09;21.60;99.90
16315;DHT22;8266;52.150;4.768;2022-08-19T05:16:38;21.60;99.90
16315;DHT22;8266;52.150;4.768;2022-08-19T05:19:07;21.50;99.90
16315;DHT22;8266;52.150;4.768;2022-08-19T05:21:51;21.50;99.90
16315;DHT22;8266;52.150;4.768;2022-08-19T05:24:36;21.60;99.90
16315;DHT22;8266;52.150;4.768;2022-08-19T05:27:03;21.60;99.90
16315;DHT22;8266;52.150;4.768;2022-08-19T05:29:32;21.50;99.90
16315;DHT22;8266;52.150;4.768;2022-08-19T05:32:00;21.60;99.90
16315;DHT22;8266;52.150;4.768;2022-08-19T05:34:29;21.60;99.90
16315;DHT22;8266;52.150;4.768;2022-08-19T05:36:58;21.60;99.90
16315;DHT22;8266;52.150;4.768;2022-08-19T05:39:27;21.60;99.90
16315;DHT22;8266;52.150;4.768;2022-08-19T05:41:56;21.60;99.90
16315;DHT22;8266;52.150;4.768;2022-08-19T05:44:24;21.70;99.90
16315;DHT22;8266;52.150;4.768;2022-08-19T05:46:52;21.70;99.90
16315;DHT22;8266;52.150;4.768;2022-08-19T05:49:21;21.70;99.90
16315;DHT22;8266;52.150;4.768;2022-08-19T05:51:50;21.70;99.90
16315;DHT22;8266;52.150;4.768;2022-08-19T05:54:17;21.70;99.90
16315;DHT22;8266;52.150;4.768;2022-08-19T05:56:44;21.80;99.90
16315;DHT22;8266;52.150;4.768;2022-08-19T05:59:14;21.80;99.90
16315;DHT22;8266;52.150;4.768;2022-08-19T06:01:44;21.80;99.90
16315;DHT22;8266;52.150;4.768;2022-08-19T06:04:12;21.90;99.90
16315;DHT22;8266;52.150;4.768;2022-08-19T06:06:40;21.90;99.90
16315;DHT22;8266;52.150;4.768;2022-08-19T06:09:08;21.90;99.90
16315;DHT22;8266;52.150;4.768;2022-08-19T06:11:38;22.00;99.90
16315;DHT22;8266;52.150;4.768;2022-08-19T06:14:07;22.00;99.90
16315;DHT22;8266;52.150;4.768;2022-08-19T06:16:35;22.00;99.90
16315;DHT22;8266;52.150;4.768;2022-08-19T06:19:06;22.10;99.90
16315;DHT22;8266;52.150;4.768;2022-08-19T06:21:34;22.10;99.90
16315;DHT22;8266;52.150;4.768;2022-08-19T06:24:04;22.10;99.90
16315;DHT22;8266;52.150;4.768;2022-08-19T06:26:33;22.20;99.90
16315;DHT22;8266;52.150;4.768;2022-08-19T06:29:01;22.20;99.90
16315;DHT22;8266;52.150;4.768;2022-08-19T06:31:29;22.30;99.90
16315;DHT22;8266;52.150;4.768;2022-08-19T06:33:59;22.30;99.90
16315;DHT22;8266;52.150;4.768;2022-08-19T06:36:30;22.30;99.90
16315;DHT22;8266;52.150;4.768;2022-08-19T06:39:00;22.40;99.90
16315;DHT22;8266;52.150;4.768;2022-08-19T06:41:27;22.40;99.90
16315;DHT22;8266;52.150;4.768;2022-08-19T06:43:57;22.40;99.90
16315;DHT22;8266;52.150;4.768;2022-08-19T06:46:24;22.50;99.90
16315;DHT22;8266;52.150;4.768;2022-08-19T06:48:52;22.50;99.90
16315;DHT22;8266;52.150;4.768;2022-08-19T06:51:21;22.50;99.90
16315;DHT22;8266;52.150;4.768;2022-08-19T06:53:50;22.60;99.90
16315;DHT22;8266;52.150;4.768;2022-08-19T06:56:19;22.60;99.90
16315;DHT22;8266;52.150;4.768;2022-08-19T06:58:47;22.60;99.90
16315;DHT22;8266;52.150;4.768;2022-08-19T07:01:18;22.70;99.90
16315;DHT22;8266;52.150;4.768;2022-08-19T07:03:46;22.70;99.90
16315;DHT22;8266;52.150;4.768;2022-08-19T07:06:14;22.80;99.90
16315;DHT22;8266;52.150;4.768;2022-08-19T07:08:43;22.80;99.90
16315;DHT22;8266;52.150;4.768;2022-08-19T07:11:12;22.90;99.90
16315;DHT22;8266;52.150;4.768;2022-08-19T07:13:40;23.00;99.90
16315;DHT22;8266;52.150;4.768;2022-08-19T07:16:10;23.00;99.90
16315;DHT22;8266;52.150;4.768;2022-08-19T07:18:39;23.10;99.90
16315;DHT22;8266;52.150;4.768;2022-08-19T07:21:09;23.20;99.90
16315;DHT22;8266;52.150;4.768;2022-08-19T07:23:36;23.30;99.90
16315;DHT22;8266;52.150;4.768;2022-08-19T07:26:05;23.30;99.90
16315;DHT22;8266;52.150;4.768;2022-08-19T07:28:32;23.50;99.90
16315;DHT22;8266;52.150;4.768;2022-08-19T07:30:59;23.60;99.90
16315;DHT22;8266;52.150;4.768;2022-08-19T07:33:29;23.70;99.90
16315;DHT22;8266;52.150;4.768;2022-08-19T07:35:59;23.90;99.90
16315;DHT22;8266;52.150;4.768;2022-08-19T07:38:26;24.00;99.90
16315;DHT22;8266;52.150;4.768;2022-08-19T07:40:53;24.20;99.90
16315;DHT22;8266;52.150;4.768;2022-08-19T07:43:20;24.30;99.90
16315;DHT22;8266;52.150;4.768;2022-08-19T07:45:51;24.50;99.90
16315;DHT22;8266;52.150;4.768;2022-08-19T07:48:18;24.70;99.90
16315;DHT22;8266;52.150;4.768;2022-08-19T07:50:48;25.00;99.90
16315;DHT22;8266;52.150;4.768;2022-08-19T07:53:17;25.20;99.90
16315;DHT22;8266;52.150;4.768;2022-08-19T07:55:44;25.40;99.90
16315;DHT22;8266;52.150;4.768;2022-08-19T07:58:13;25.60;99.90
16315;DHT22;8266;52.150;4.768;2022-08-19T08:00:41;25.80;99.90
16315;DHT22;8266;52.150;4.768;2022-08-19T08:03:09;25.90;99.90
16315;DHT22;8266;52.150;4.768;2022-08-19T08:05:36;26.00;99.90
16315;DHT22;8266;52.150;4.768;2022-08-19T08:08:22;26.20;99.90
16315;DHT22;8266;52.150;4.768;2022-08-19T08:11:06;26.30;99.90
16315;DHT22;8266;52.150;4.768;2022-08-19T08:13:33;26.40;99.90
16315;DHT22;8266;52.150;4.768;2022-08-19T08:16:01;26.50;99.90
16315;DHT22;8266;52.150;4.768;2022-08-19T08:18:28;26.60;99.90
16315;DHT22;8266;52.150;4.768;2022-08-19T08:20:56;26.80;99.90
16315;DHT22;8266;52.150;4.768;2022-08-19T08:23:25;26.80;99.90
16315;DHT22;8266;52.150;4.768;2022-08-19T08:25:54;26.80;99.90
16315;DHT22;8266;52.150;4.768;2022-08-19T08:28:21;26.90;99.90
16315;DHT22;8266;52.150;4.768;2022-08-19T08:30:49;26.80;99.90
16315;DHT22;8266;52.150;4.768;2022-08-19T08:33:18;26.80;99.90
16315;DHT22;8266;52.150;4.768;2022-08-19T08:35:45;26.80;99.90
16315;DHT22;8266;52.150;4.768;2022-08-19T08:38:13;26.80;99.90
16315;DHT22;8266;52.150;4.768;2022-08-19T08:40:45;26.80;99.90
16315;DHT22;8266;52.150;4.768;2022-08-19T08:43:24;26.80;99.90
16315;DHT22;8266;52.150;4.768;2022-08-19T08:45:59;26.90;99.90
16315;DHT22;8266;52.150;4.768;2022-08-19T08:48:35;26.90;99.90
16315;DHT22;8266;52.150;4.768;2022-08-19T08:51:08;26.90;99.90
16315;DHT22;8266;52.150;4.768;2022-08-19T08:53:36;27.00;99.90
16315;DHT22;8266;52.150;4.768;2022-08-19T08:56:06;27.10;99.90
16315;DHT22;8266;52.150;4.768;2022-08-19T08:58:47;27.10;99.90
16315;DHT22;8266;52.150;4.768;2022-08-19T09:01:15;27.20;99.90
16315;DHT22;8266;52.150;4.768;2022-08-19T09:03:43;27.20;99.90
16315;DHT22;8266;52.150;4.768;2022-08-19T09:06:14;27.20;99.90
16315;DHT22;8266;52.150;4.768;2022-08-19T09:08:51;27.10;99.90
16315;DHT22;8266;52.150;4.768;2022-08-19T09:11:34;27.10;99.90
16315;DHT22;8266;52.150;4.768;2022-08-19T09:14:08;27.10;99.90
16315;DHT22;8266;52.150;4.768;2022-08-19T09:16:38;27.00;99.90
16315;DHT22;8266;52.150;4.768;2022-08-19T09:19:07;27.00;99.90
16315;DHT22;8266;52.150;4.768;2022-08-19T09:21:34;27.00;99.90
16315;DHT22;8266;52.150;4.768;2022-08-19T09:24:03;27.00;99.90
16315;DHT22;8266;52.150;4.768;2022-08-19T09:26:33;27.10;99.90
16315;DHT22;8266;52.150;4.768;2022-08-19T09:29:00;27.10;99.90
16315;DHT22;8266;52.150;4.768;2022-08-19T09:31:31;27.20;99.90
16315;DHT22;8266;52.150;4.768;2022-08-19T09:33:58;27.20;99.90
16315;DHT22;8266;52.150;4.768;2022-08-19T09:36:27;27.30;99.90
16315;DHT22;8266;52.150;4.768;2022-08-19T09:38:58;27.50;99.90
16315;DHT22;8266;52.150;4.768;2022-08-19T09:41:26;27.70;99.90
16315;DHT22;8266;52.150;4.768;2022-08-19T09:43:56;27.90;99.90
16315;DHT22;8266;52.150;4.768;2022-08-19T09:46:24;28.00;99.90
16315;DHT22;8266;52.150;4.768;2022-08-19T09:48:52;28.20;99.90
16315;DHT22;8266;52.150;4.768;2022-08-19T09:51:21;28.30;99.90
16315;DHT22;8266;52.150;4.768;2022-08-19T09:53:50;28.30;99.90
16315;DHT22;8266;52.150;4.768;2022-08-19T09:56:20;28.20;99.90
16315;DHT22;8266;52.150;4.768;2022-08-19T09:58:47;28.20;99.90
16315;DHT22;8266;52.150;4.768;2022-08-19T10:01:21;28.10;99.90
16315;DHT22;8266;52.150;4.768;2022-08-19T10:03:50;28.00;99.90
16315;DHT22;8266;52.150;4.768;2022-08-19T10:06:18;28.00;99.90
16315;DHT22;8266;52.150;4.768;2022-08-19T10:08:46;28.10;99.90
16315;DHT22;8266;52.150;4.768;2022-08-19T10:11:14;28.00;99.90
16315;DHT22;8266;52.150;4.768;2022-08-19T10:13:43;28.00;99.90
16315;DHT22;8266;52.150;4.768;2022-08-19T10:16:12;28.00;99.90
16315;DHT22;8266;52.150;4.768;2022-08-19T10:18:42;27.90;99.90
16315;DHT22;8266;52.150;4.768;2022-08-19T10:21:11;27.80;99.90
16315;DHT22;8266;52.150;4.768;2022-08-19T10:23:43;27.70;99.90
16315;DHT22;8266;52.150;4.768;2022-08-19T10:26:12;27.60;99.90
16315;DHT22;8266;52.150;4.768;2022-08-19T10:28:40;27.60;99.90
16315;DHT22;8266;52.150;4.768;2022-08-19T10:31:09;27.50;99.90
16315;DHT22;8266;52.150;4.768;2022-08-19T10:33:37;27.40;99.90
16315;DHT22;8266;52.150;4.768;2022-08-19T10:36:07;27.40;99.90
16315;DHT22;8266;52.150;4.768;2022-08-19T10:38:36;27.30;99.90
16315;DHT22;8266;52.150;4.768;2022-08-19T10:41:08;27.30;99.90
16315;DHT22;8266;52.150;4.768;2022-08-19T10:43:35;27.30;99.90
16315;DHT22;8266;52.150;4.768;2022-08-19T10:46:04;27.30;99.90
16315;DHT22;8266;52.150;4.768;2022-08-19T10:48:31;27.20;99.90
16315;DHT22;8266;52.150;4.768;2022-08-19T10:50:59;27.20;99.90
16315;DHT22;8266;52.150;4.768;2022-08-19T10:53:45;27.20;99.90
16315;DHT22;8266;52.150;4.768;2022-08-19T10:56:12;27.20;99.90
16315;DHT22;8266;52.150;4.768;2022-08-19T10:58:56;27.20;99.90
16315;DHT22;8266;52.150;4.768;2022-08-19T11:01:24;27.30;99.90
16315;DHT22;8266;52.150;4.768;2022-08-19T11:03:51;27.30;99.90
16315;DHT22;8266;52.150;4.768;2022-08-19T11:06:18;27.30;99.90
16315;DHT22;8266;52.150;4.768;2022-08-19T11:08:47;27.40;99.90
16315;DHT22;8266;52.150;4.768;2022-08-19T11:11:14;27.50;99.90
16315;DHT22;8266;52.150;4.768;2022-08-19T11:13:41;27.60;99.90
16315;DHT22;8266;52.150;4.768;2022-08-19T11:16:11;27.70;99.90
16315;DHT22;8266;52.150;4.768;2022-08-19T11:18:40;28.00;99.90
16315;DHT22;8266;52.150;4.768;2022-08-19T11:21:10;28.20;99.90
16315;DHT22;8266;52.150;4.768;2022-08-19T11:23:38;28.30;99.90
16315;DHT22;8266;52.150;4.768;2022-08-19T11:26:07;28.40;99.90
16315;DHT22;8266;52.150;4.768;2022-08-19T11:28:34;28.40;99.90
16315;DHT22;8266;52.150;4.768;2022-08-19T11:31:01;28.40;99.90
16315;DHT22;8266;52.150;4.768;2022-08-19T11:33:29;28.30;99.90
16315;DHT22;8266;52.150;4.768;2022-08-19T11:35:57;28.30;99.90
16315;DHT22;8266;52.150;4.768;2022-08-19T11:38:24;28.40;99.90
16315;DHT22;8266;52.150;4.768;2022-08-19T11:40:59;28.40;99.90
16315;DHT22;8266;52.150;4.768;2022-08-19T11:43:28;28.30;99.90
16315;DHT22;8266;52.150;4.768;2022-08-19T11:45:56;28.40;99.90
16315;DHT22;8266;52.150;4.768;2022-08-19T11:48:24;28.40;99.90
16315;DHT22;8266;52.150;4.768;2022-08-19T11:50:52;28.30;99.90
16315;DHT22;8266;52.150;4.768;2022-08-19T11:53:20;28.30;99.90
16315;DHT22;8266;52.150;4.768;2022-08-19T11:55:47;28.20;99.90
16315;DHT22;8266;52.150;4.768;2022-08-19T11:58:15;28.20;99.90
16315;DHT22;8266;52.150;4.768;2022-08-19T12:00:44;28.10;99.90
16315;DHT22;8266;52.150;4.768;2022-08-19T12:03:12;28.00;99.90
16315;DHT22;8266;52.150;4.768;2022-08-19T12:05:40;27.90;99.90
16315;DHT22;8266;52.150;4.768;2022-08-19T12:08:08;27.90;99.90
16315;DHT22;8266;52.150;4.768;2022-08-19T12:10:36;27.80;99.90
16315;DHT22;8266;52.150;4.768;2022-08-19T12:13:03;27.80;99.90
16315;DHT22;8266;52.150;4.768;2022-08-19T12:15:35;27.80;99.90
16315;DHT22;8266;52.150;4.768;2022-08-19T12:18:04;27.80;99.90
16315;DHT22;8266;52.150;4.768;2022-08-19T12:20:34;27.80;99.90
16315;DHT22;8266;52.150;4.768;2022-08-19T12:23:01;27.80;99.90
16315;DHT22;8266;52.150;4.768;2022-08-19T12:25:29;27.90;99.90
16315;DHT22;8266;52.150;4.768;2022-08-19T12:27:56;27.90;99.90
16315;DHT22;8266;52.150;4.768;2022-08-19T12:30:23;27.90;99.90
16315;DHT22;8266;52.150;4.768;2022-08-19T12:32:50;28.00;99.90
16315;DHT22;8266;52.150;4.768;2022-08-19T12:35:19;28.00;99.90
16315;DHT22;8266;52.150;4.768;2022-08-19T12:37:47;28.10;99.90
16315;DHT22;8266;52.150;4.768;2022-08-19T12:40:15;28.20;99.90
16315;DHT22;8266;52.150;4.768;2022-08-19T12:42:43;28.20;99.90
16315;DHT22;8266;52.150;4.768;2022-08-19T12:45:11;28.30;99.90
16315;DHT22;8266;52.150;4.768;2022-08-19T12:47:39;28.30;99.90
16315;DHT22;8266;52.150;4.768;2022-08-19T12:50:06;28.30;99.90
16315;DHT22;8266;52.150;4.768;2022-08-19T12:52:36;28.30;99.90
16315;DHT22;8266;52.150;4.768;2022-08-19T12:55:05;28.40;99.90
16315;DHT22;8266;52.150;4.768;2022-08-19T12:57:33;28.40;99.90
16315;DHT22;8266;52.150;4.768;2022-08-19T13:00:04;28.40;99.90
16315;DHT22;8266;52.150;4.768;2022-08-19T13:02:34;28.40;99.90
16315;DHT22;8266;52.150;4.768;2022-08-19T13:05:01;28.40;99.90
16315;DHT22;8266;52.150;4.768;2022-08-19T13:07:29;28.50;99.90
16315;DHT22;8266;52.150;4.768;2022-08-19T13:09:57;28.50;99.90
16315;DHT22;8266;52.150;4.768;2022-08-19T13:12:24;28.60;99.90
16315;DHT22;8266;52.150;4.768;2022-08-19T13:14:52;28.70;99.90
16315;DHT22;8266;52.150;4.768;2022-08-19T13:17:19;28.80;99.90
16315;DHT22;8266;52.150;4.768;2022-08-19T13:19:46;28.80;99.90
16315;DHT22;8266;52.150;4.768;2022-08-19T13:22:14;28.90;99.90
16315;DHT22;8266;52.150;4.768;2022-08-19T13:24:41;29.00;99.90
16315;DHT22;8266;52.150;4.768;2022-08-19T13:27:09;29.00;99.90
16315;DHT22;8266;52.150;4.768;2022-08-19T13:29:36;29.00;99.90
16315;DHT22;8266;52.150;4.768;2022-08-19T13:32:21;29.10;99.90
16315;DHT22;8266;52.150;4.768;2022-08-19T13:35:05;29.20;99.90
16315;DHT22;8266;52.150;4.768;2022-08-19T13:37:32;29.30;99.90
16315;DHT22;8266;52.150;4.768;2022-08-19T13:40:11;29.40;99.90
16315;DHT22;8266;52.150;4.768;2022-08-19T13:42:42;29.50;99.90
16315;DHT22;8266;52.150;4.768;2022-08-19T13:45:13;29.60;99.90
16315;DHT22;8266;52.150;4.768;2022-08-19T13:47:41;29.70;99.90
16315;DHT22;8266;52.150;4.768;2022-08-19T13:50:10;29.70;99.90
16315;DHT22;8266;52.150;4.768;2022-08-19T13:52:38;29.70;99.90
16315;DHT22;8266;52.150;4.768;2022-08-19T13:55:06;29.70;99.90
16315;DHT22;8266;52.150;4.768;2022-08-19T13:57:34;29.60;99.90
16315;DHT22;8266;52.150;4.768;2022-08-19T14:00:04;29.60;99.90
16315;DHT22;8266;52.150;4.768;2022-08-19T14:02:31;29.60;99.90
16315;DHT22;8266;52.150;4.768;2022-08-19T14:04:58;29.50;99.90
16315;DHT22;8266;52.150;4.768;2022-08-19T14:07:25;29.50;99.90
16315;DHT22;8266;52.150;4.768;2022-08-19T14:09:54;29.50;99.90
16315;DHT22;8266;52.150;4.768;2022-08-19T14:12:21;29.60;99.90
16315;DHT22;8266;52.150;4.768;2022-08-19T14:14:48;29.60;99.90
16315;DHT22;8266;52.150;4.768;2022-08-19T14:17:16;29.70;99.90
16315;DHT22;8266;52.150;4.768;2022-08-19T14:19:43;29.70;99.90
16315;DHT22;8266;52.150;4.768;2022-08-19T14:22:10;29.80;99.90
16315;DHT22;8266;52.150;4.768;2022-08-19T14:24:37;29.80;99.90
16315;DHT22;8266;52.150;4.768;2022-08-19T14:27:05;29.80;99.90
16315;DHT22;8266;52.150;4.768;2022-08-19T14:29:32;29.80;99.90
16315;DHT22;8266;52.150;4.768;2022-08-19T14:32:00;29.80;99.90
16315;DHT22;8266;52.150;4.768;2022-08-19T14:34:28;29.70;99.90
16315;DHT22;8266;52.150;4.768;2022-08-19T14:37:05;29.60;99.90
16315;DHT22;8266;52.150;4.768;2022-08-19T14:39:32;29.50;99.90
16315;DHT22;8266;52.150;4.768;2022-08-19T14:41:59;29.40;99.90
16315;DHT22;8266;52.150;4.768;2022-08-19T14:44:29;29.40;99.90
16315;DHT22;8266;52.150;4.768;2022-08-19T14:47:02;29.30;99.90
16315;DHT22;8266;52.150;4.768;2022-08-19T14:49:31;29.20;99.90
16315;DHT22;8266;52.150;4.768;2022-08-19T14:51:57;29.20;99.90
16315;DHT22;8266;52.150;4.768;2022-08-19T14:54:25;29.10;99.90
16315;DHT22;8266;52.150;4.768;2022-08-19T14:56:56;29.10;99.90
16315;DHT22;8266;52.150;4.768;2022-08-19T14:59:24;29.10;99.90
16315;DHT22;8266;52.150;4.768;2022-08-19T15:01:51;29.10;99.90
16315;DHT22;8266;52.150;4.768;2022-08-19T15:04:18;29.10;99.90
16315;DHT22;8266;52.150;4.768;2022-08-19T15:06:46;29.10;99.90
16315;DHT22;8266;52.150;4.768;2022-08-19T15:09:15;29.10;99.90
16315;DHT22;8266;52.150;4.768;2022-08-19T15:11:42;29.10;99.90
16315;DHT22;8266;52.150;4.768;2022-08-19T15:14:09;29.00;99.90
16315;DHT22;8266;52.150;4.768;2022-08-19T15:16:36;29.00;99.90
16315;DHT22;8266;52.150;4.768;2022-08-19T15:19:07;29.00;99.90
16315;DHT22;8266;52.150;4.768;2022-08-19T15:21:34;29.00;99.90
16315;DHT22;8266;52.150;4.768;2022-08-19T15:24:04;29.00;99.90
16315;DHT22;8266;52.150;4.768;2022-08-19T15:26:31;28.90;99.90
16315;DHT22;8266;52.150;4.768;2022-08-19T15:28:58;28.90;99.90
16315;DHT22;8266;52.150;4.768;2022-08-19T15:31:26;28.90;99.90
16315;DHT22;8266;52.150;4.768;2022-08-19T15:33:54;28.80;99.90
16315;DHT22;8266;52.150;4.768;2022-08-19T15:36:23;28.80;99.90
16315;DHT22;8266;52.150;4.768;2022-08-19T15:38:50;28.70;99.90
16315;DHT22;8266;52.150;4.768;2022-08-19T15:41:21;28.70;99.90
16315;DHT22;8266;52.150;4.768;2022-08-19T15:43:56;28.60;99.90
16315;DHT22;8266;52.150;4.768;2022-08-19T15:46:26;28.50;99.90
16315;DHT22;8266;52.150;4.768;2022-08-19T15:48:54;28.50;99.90
16315;DHT22;8266;52.150;4.768;2022-08-19T15:51:22;28.40;99.90
16315;DHT22;8266;52.150;4.768;2022-08-19T15:53:50;28.40;99.90
16315;DHT22;8266;52.150;4.768;2022-08-19T15:56:18;28.30;99.90